Time,TemperatureF,DewpointF,PressureIn,WindDirection,WindDirectionDegrees,WindSpeedMPH,WindSpeedGustMPH,Humidity,HourlyPrecipIn,Conditions,Clouds,dailyrainin,SolarRadiationWatts/m^2,SoftwareType,DateUTC
2013-02-23 00:11:00,57.0,56.0,-100.00,NE,34,4.0,11.0,95,0.00,,,0.49,0.000000,,2013-02-23 06:11:00,
2013-02-23 00:22:00,57.0,56.0,-100.00,NE,34,4.0,11.0,95,0.00,,,0.49,0.000000,,2013-02-23 06:22:00,
2013-02-23 00:32:00,57.0,56.0,-100.00,NE,34,4.0,11.0,95,0.00,,,0.49,0.000000,,2013-02-23 06:32:00,
2013-02-23 00:41:00,57.0,56.0,-100.00,NE,34,4.0,11.0,95,0.00,,,0.49,0.000000,,2013-02-23 06:41:00,
2013-02-23 00:50:00,57.0,56.0,-100.00,NNE,23,5.0,13.0,95,0.00,,,0.42,0.000000,,2013-02-23 06:50:00,
2013-02-23 01:21:00,57.0,56.0,-100.00,NNE,23,5.0,13.0,95,0.00,,,0.42,0.000000,,2013-02-23 07:21:00,
2013-02-23 01:32:00,57.0,56.0,-100.00,NNE,23,5.0,13.0,95,0.00,,,0.42,0.000000,,2013-02-23 07:32:00,
2013-02-23 01:42:00,57.0,56.0,-100.00,NNE,23,5.0,13.0,95,0.00,,,0.42,0.000000,,2013-02-23 07:42:00,
2013-02-23 01:50:00,56.0,55.0,-100.00,North,356,10.0,16.0,95,0.02,,,0.19,0.000000,,2013-02-23 07:50:00,
2013-02-23 02:11:00,56.0,55.0,-100.00,North,356,10.0,16.0,95,0.02,,,0.19,0.000000,,2013-02-23 08:11:00,
2013-02-23 02:21:00,56.0,55.0,-100.00,North,356,10.0,16.0,95,0.02,,,0.19,0.000000,,2013-02-23 08:21:00,
2013-02-23 02:31:00,56.0,55.0,-100.00,North,356,10.0,16.0,95,0.02,,,0.19,0.000000,,2013-02-23 08:31:00,
2013-02-23 02:42:00,56.0,55.0,-100.00,North,356,10.0,16.0,95,0.02,,,0.19,0.000000,,2013-02-23 08:42:00,
2013-02-23 03:50:00,56.0,55.0,-100.00,NNE,32,7.0,15.0,95,-99.99,,,0.77,0.000000,,2013-02-23 09:50:00,
2013-02-23 04:11:00,56.0,55.0,-100.00,NNE,32,7.0,15.0,95,-99.99,,,0.77,0.000000,,2013-02-23 10:11:00,
2013-02-23 04:21:00,56.0,55.0,-100.00,NNE,32,7.0,15.0,95,-99.99,,,0.77,0.000000,,2013-02-23 10:21:00,
2013-02-23 04:32:00,56.0,55.0,-100.00,NNE,32,7.0,15.0,95,-99.99,,,0.77,0.000000,,2013-02-23 10:32:00,
2013-02-23 04:42:00,56.0,55.0,-100.00,NNE,32,7.0,15.0,95,-99.99,,,0.77,0.000000,,2013-02-23 10:42:00,
2013-02-23 04:50:00,56.0,55.0,-100.00,NNE,30,6.0,16.0,95,0.16,,,0.93,0.000000,,2013-02-23 10:50:00,
2013-02-23 05:11:00,56.0,55.0,-100.00,NNE,30,6.0,16.0,95,0.16,,,0.93,0.000000,,2013-02-23 11:11:00,
2013-02-23 05:21:00,56.0,55.0,-100.00,NNE,30,6.0,16.0,95,0.16,,,0.93,0.000000,,2013-02-23 11:21:00,
2013-02-23 05:32:00,56.0,55.0,-100.00,NNE,30,6.0,16.0,95,0.16,,,0.93,0.000000,,2013-02-23 11:32:00,
2013-02-23 05:42:00,56.0,55.0,-100.00,NNE,30,6.0,16.0,95,0.16,,,0.93,0.000000,,2013-02-23 11:42:00,
2013-02-23 05:50:00,56.0,54.0,-100.00,NNE,25,6.0,18.0,94,0.07,,,1.00,0.000000,,2013-02-23 11:50:00,
2013-02-23 06:21:00,56.0,54.0,-100.00,NNE,25,6.0,18.0,94,0.07,,,1.00,0.000000,,2013-02-23 12:21:00,
2013-02-23 06:32:00,56.0,54.0,-100.00,NNE,25,6.0,18.0,94,0.07,,,1.00,0.000000,,2013-02-23 12:32:00,
2013-02-23 06:42:00,56.0,54.0,-100.00,NNE,25,6.0,18.0,94,0.07,,,1.00,0.000000,,2013-02-23 12:42:00,
2013-02-23 06:50:00,55.0,52.0,-100.00,NNE,33,8.0,19.0,90,0.01,,,1.01,1.000000,,2013-02-23 12:50:00,
2013-02-23 07:11:00,55.0,52.0,-100.00,NNE,33,8.0,19.0,90,0.01,,,1.01,1.000000,,2013-02-23 13:11:00,
2013-02-23 07:22:00,55.0,52.0,-100.00,NNE,33,8.0,19.0,90,0.01,,,1.01,1.000000,,2013-02-23 13:22:00,
2013-02-23 07:32:00,55.0,52.0,-100.00,NNE,33,8.0,19.0,90,0.01,,,1.01,1.000000,,2013-02-23 13:32:00,
2013-02-23 07:42:00,55.0,52.0,-100.00,NNE,33,8.0,19.0,90,0.01,,,1.01,1.000000,,2013-02-23 13:42:00,
2013-02-23 07:50:00,55.0,52.0,-100.00,NNE,31,6.0,13.0,90,0.00,,,1.01,19.000000,,2013-02-23 13:50:00,
2013-02-23 08:11:00,55.0,52.0,-100.00,NNE,31,6.0,13.0,90,0.00,,,1.01,19.000000,,2013-02-23 14:11:00,
2013-02-23 08:21:00,55.0,52.0,-100.00,NNE,31,6.0,13.0,90,0.00,,,1.01,19.000000,,2013-02-23 14:21:00,
2013-02-23 08:32:00,55.0,52.0,-100.00,NNE,31,6.0,13.0,90,0.00,,,1.01,19.000000,,2013-02-23 14:32:00,
2013-02-23 08:42:00,55.0,52.0,-100.00,NNE,31,6.0,13.0,90,0.00,,,1.01,19.000000,,2013-02-23 14:42:00,
2013-02-23 08:50:00,56.0,52.0,-100.00,NE,36,6.0,15.0,88,0.00,,,1.01,125.000000,,2013-02-23 14:50:00,
2013-02-23 09:22:00,56.0,52.0,-100.00,NE,36,6.0,15.0,88,0.00,,,1.01,125.000000,,2013-02-23 15:22:00,
2013-02-23 09:32:00,56.0,52.0,-100.00,NE,36,6.0,15.0,88,0.00,,,1.01,125.000000,,2013-02-23 15:32:00,
2013-02-23 09:42:00,56.0,52.0,-100.00,NE,36,6.0,15.0,88,0.00,,,1.01,125.000000,,2013-02-23 15:42:00,
2013-02-23 09:50:00,58.0,54.0,-100.00,NE,35,8.0,14.0,85,0.00,,,1.01,207.000000,,2013-02-23 15:50:00,
2013-02-23 10:21:00,58.0,54.0,-100.00,NE,35,8.0,14.0,85,0.00,,,1.01,207.000000,,2013-02-23 16:21:00,
2013-02-23 10:31:00,58.0,54.0,-100.00,NE,35,8.0,14.0,85,0.00,,,1.01,207.000000,,2013-02-23 16:31:00,
2013-02-23 10:42:00,58.0,54.0,-100.00,NE,35,8.0,14.0,85,0.00,,,1.01,207.000000,,2013-02-23 16:42:00,
2013-02-23 10:50:00,59.0,54.0,-100.00,NNE,21,4.0,13.0,83,0.00,,,1.01,247.000000,,2013-02-23 16:50:00,
2013-02-23 11:11:00,59.0,54.0,-100.00,NNE,21,4.0,13.0,83,0.00,,,1.01,247.000000,,2013-02-23 17:11:00,
2013-02-23 11:21:00,59.0,54.0,-100.00,NNE,21,4.0,13.0,83,0.00,,,1.01,247.000000,,2013-02-23 17:21:00,
2013-02-23 11:32:00,59.0,54.0,-100.00,NNE,21,4.0,13.0,83,0.00,,,1.01,247.000000,,2013-02-23 17:32:00,
2013-02-23 11:42:00,59.0,54.0,-100.00,NNE,21,4.0,13.0,83,0.00,,,1.01,247.000000,,2013-02-23 17:42:00,
2013-02-23 11:50:00,59.0,54.0,-100.00,NNE,13,6.0,10.0,83,0.00,,,1.01,139.000000,,2013-02-23 17:50:00,
2013-02-23 12:12:00,59.0,54.0,-100.00,NNE,13,6.0,10.0,83,0.00,,,1.01,139.000000,,2013-02-23 18:12:00,
2013-02-23 12:22:00,59.0,54.0,-100.00,NNE,13,6.0,10.0,83,0.00,,,1.01,139.000000,,2013-02-23 18:22:00,
2013-02-23 12:32:00,59.0,54.0,-100.00,NNE,13,6.0,10.0,83,0.00,,,1.01,139.000000,,2013-02-23 18:32:00,
2013-02-23 12:42:00,59.0,54.0,-100.00,NNE,13,6.0,10.0,83,0.00,,,1.01,139.000000,,2013-02-23 18:42:00,
2013-02-23 12:50:00,58.0,54.0,-100.00,NNE,30,3.0,10.0,85,0.00,,,1.01,49.000000,,2013-02-23 18:50:00,
2013-02-23 13:11:00,58.0,54.0,-100.00,NNE,30,3.0,10.0,85,0.00,,,1.01,49.000000,,2013-02-23 19:11:00,
2013-02-23 13:21:00,58.0,54.0,-100.00,NNE,30,3.0,10.0,85,0.00,,,1.01,49.000000,,2013-02-23 19:21:00,
2013-02-23 13:32:00,58.0,54.0,-100.00,NNE,30,3.0,10.0,85,0.00,,,1.01,49.000000,,2013-02-23 19:32:00,
2013-02-23 13:41:00,58.0,54.0,-100.00,NNE,30,3.0,10.0,85,0.00,,,1.01,49.000000,,2013-02-23 19:41:00,
2013-02-23 13:50:00,57.0,55.0,-100.00,North,1,4.0,13.0,92,0.10,,,-99.99,29.000000,,2013-02-23 19:50:00,
2013-02-23 14:11:00,57.0,55.0,-100.00,North,1,4.0,13.0,92,0.10,,,-99.99,29.000000,,2013-02-23 20:11:00,
2013-02-23 14:21:00,57.0,55.0,-100.00,North,1,4.0,13.0,92,0.10,,,-99.99,29.000000,,2013-02-23 20:21:00,
2013-02-23 14:32:00,57.0,55.0,-100.00,North,1,4.0,13.0,92,0.10,,,-99.99,29.000000,,2013-02-23 20:32:00,
2013-02-23 14:41:00,57.0,55.0,-100.00,North,1,4.0,13.0,92,0.10,,,-99.99,29.000000,,2013-02-23 20:41:00,
2013-02-23 14:50:00,58.0,56.0,-100.00,North,351,6.0,10.0,93,0.02,,,1.13,70.000000,,2013-02-23 20:50:00,
2013-02-23 15:11:00,58.0,56.0,-100.00,North,351,6.0,10.0,93,0.02,,,1.13,70.000000,,2013-02-23 21:11:00,
2013-02-23 15:22:00,58.0,56.0,-100.00,North,351,6.0,10.0,93,0.02,,,1.13,70.000000,,2013-02-23 21:22:00,
2013-02-23 15:32:00,58.0,56.0,-100.00,North,351,6.0,10.0,93,0.02,,,1.13,70.000000,,2013-02-23 21:32:00,
2013-02-23 15:41:00,58.0,56.0,-100.00,North,351,6.0,10.0,93,0.02,,,1.13,70.000000,,2013-02-23 21:41:00,
2013-02-23 15:50:00,60.0,56.0,-100.00,NNE,12,6.0,14.0,87,0.00,,,0.98,213.000000,,2013-02-23 21:50:00,
2013-02-23 16:11:00,60.0,56.0,-100.00,NNE,12,6.0,14.0,87,0.00,,,0.98,213.000000,,2013-02-23 22:11:00,
2013-02-23 16:22:00,60.0,56.0,-100.00,NNE,12,6.0,14.0,87,0.00,,,0.98,213.000000,,2013-02-23 22:22:00,
2013-02-23 16:31:00,60.0,56.0,-100.00,NNE,12,6.0,14.0,87,0.00,,,0.98,213.000000,,2013-02-23 22:31:00,
2013-02-23 16:42:00,60.0,56.0,-100.00,NNE,12,6.0,14.0,87,0.00,,,0.98,213.000000,,2013-02-23 22:42:00,
2013-02-23 16:50:00,59.0,55.0,-100.00,NNW,327,6.0,12.0,86,0.00,,,0.98,47.000000,,2013-02-23 22:50:00,
2013-02-23 17:21:00,59.0,55.0,-100.00,NNW,327,6.0,12.0,86,0.00,,,0.98,47.000000,,2013-02-23 23:21:00,
2013-02-23 17:31:00,59.0,55.0,-100.00,NNW,327,6.0,12.0,86,0.00,,,0.98,47.000000,,2013-02-23 23:31:00,
2013-02-23 17:42:00,59.0,55.0,-100.00,NNW,327,6.0,12.0,86,0.00,,,0.98,47.000000,,2013-02-23 23:42:00,
2013-02-23 17:50:00,58.0,54.0,-100.00,NNW,340,4.0,9.0,86,0.00,,,0.98,10.000000,,2013-02-23 23:50:00,
2013-02-23 18:11:00,58.0,54.0,-100.00,NNW,340,4.0,9.0,86,0.00,,,0.98,10.000000,,2013-02-24 00:11:00,
2013-02-23 18:22:00,58.0,54.0,-100.00,NNW,340,4.0,9.0,86,0.00,,,0.98,10.000000,,2013-02-24 00:22:00,
2013-02-23 18:32:00,58.0,54.0,-100.00,NNW,340,4.0,9.0,86,0.00,,,0.98,10.000000,,2013-02-24 00:32:00,
2013-02-23 18:42:00,58.0,54.0,-100.00,NNW,340,4.0,9.0,86,0.00,,,0.98,10.000000,,2013-02-24 00:42:00,
2013-02-23 18:50:00,57.0,53.0,-100.00,North,353,5.0,9.0,87,0.00,,,0.98,0.000000,,2013-02-24 00:50:00,
2013-02-23 19:11:00,57.0,53.0,-100.00,North,353,5.0,9.0,87,0.00,,,0.98,0.000000,,2013-02-24 01:11:00,
2013-02-23 19:22:00,57.0,53.0,-100.00,North,353,5.0,9.0,87,0.00,,,0.98,0.000000,,2013-02-24 01:22:00,
2013-02-23 19:31:00,57.0,53.0,-100.00,North,353,5.0,9.0,87,0.00,,,0.98,0.000000,,2013-02-24 01:31:00,
2013-02-23 19:42:00,57.0,53.0,-100.00,North,353,5.0,9.0,87,0.00,,,0.98,0.000000,,2013-02-24 01:42:00,
2013-02-23 19:50:00,57.0,53.0,-100.00,NNE,30,2.0,11.0,88,0.00,,,0.98,0.000000,,2013-02-24 01:50:00,
2013-02-23 20:11:00,57.0,53.0,-100.00,NNE,30,2.0,11.0,88,0.00,,,0.98,0.000000,,2013-02-24 02:11:00,
2013-02-23 20:21:00,57.0,53.0,-100.00,NNE,30,2.0,11.0,88,0.00,,,0.98,0.000000,,2013-02-24 02:21:00,
2013-02-23 20:32:00,57.0,53.0,-100.00,NNE,30,2.0,11.0,88,0.00,,,0.98,0.000000,,2013-02-24 02:32:00,
2013-02-23 20:42:00,57.0,53.0,-100.00,NNE,30,2.0,11.0,88,0.00,,,0.98,0.000000,,2013-02-24 02:42:00,
2013-02-23 20:50:00,57.0,53.0,-100.00,NNE,16,3.0,9.0,86,0.00,,,0.98,0.000000,,2013-02-24 02:50:00,
2013-02-23 21:22:00,57.0,53.0,-100.00,NNE,16,3.0,9.0,86,0.00,,,0.98,0.000000,,2013-02-24 03:22:00,
2013-02-23 21:32:00,57.0,53.0,-100.00,NNE,16,3.0,9.0,86,0.00,,,0.98,0.000000,,2013-02-24 03:32:00,
2013-02-23 21:42:00,57.0,53.0,-100.00,NNE,16,3.0,9.0,86,0.00,,,0.98,0.000000,,2013-02-24 03:42:00,
2013-02-23 21:50:00,56.0,50.0,-100.00,NNE,19,5.0,10.0,81,0.00,,,0.98,0.000000,,2013-02-24 03:50:00,
2013-02-23 22:11:00,56.0,50.0,-100.00,NNE,19,5.0,10.0,81,0.00,,,0.98,0.000000,,2013-02-24 04:11:00,
2013-02-23 22:21:00,56.0,50.0,-100.00,NNE,19,5.0,10.0,81,0.00,,,0.98,0.000000,,2013-02-24 04:21:00,
2013-02-23 22:32:00,56.0,50.0,-100.00,NNE,19,5.0,10.0,81,0.00,,,0.98,0.000000,,2013-02-24 04:32:00,
2013-02-23 22:41:00,56.0,50.0,-100.00,NNE,19,5.0,10.0,81,0.00,,,0.98,0.000000,,2013-02-24 04:41:00,
2013-02-23 22:50:00,56.0,49.0,-100.00,NNE,26,5.0,11.0,76,0.00,,,0.97,0.000000,,2013-02-24 04:50:00,
2013-02-23 23:22:00,56.0,49.0,-100.00,NNE,26,5.0,11.0,76,0.00,,,0.97,0.000000,,2013-02-24 05:22:00,
2013-02-23 23:32:00,56.0,49.0,-100.00,NNE,26,5.0,11.0,76,0.00,,,0.97,0.000000,,2013-02-24 05:32:00,
2013-02-23 23:42:00,56.0,49.0,-100.00,NNE,26,5.0,11.0,76,0.00,,,0.97,0.000000,,2013-02-24 05:42:00,
2013-02-23 23:50:00,55.0,46.0,-100.00,NE,38,6.0,12.0,71,0.00,,,0.97,0.000000,,2013-02-24 05:50:00,